• Join FlightAware (Why Join?)
  • Login
  • US Flag 
03:15PM EDT


 

Airport Tracker/Info


-or-


 

Live Flight TrackerFlight Track Log ✈ ASQ5874 ✈ 28-Sep-2013 ✈ KRDU - KORD

Flight Track Log - Related Links

Times and Time Zones

All times are in EDT time to prevent confusion due to time zone crossing. See the ASQ5874 flight status page for this flight to view local times or setup timezone preferences in your user account.

Time Position Orientation Groundspeed Altitude Reporting Facility
EDT Latitude Longitude Course Direction KTS MPH feet Rate Location/Type
12:46PM 35.8967 -78.7767 256° West 163 188 1,100  Level Washington Center
12:46PM 35.9347 -78.7550 25° Northeast 189 217 2,400 1,920 Climbing Washington Center
12:47PM 35.9883 -78.7828 337° Northwest 244 281 4,600 1,980 Climbing Washington Center
12:49PM 36.1295 -79.1165 261° West  Level Estimated
12:49PM 35.9878 -78.8778 270° West 252 290 6,900  Level Washington Center
12:50PM 36.1923 -79.1991 256° West  Level Estimated
12:50PM 35.9564 -78.9639 246° West 258 297 9,000  Level Washington Center
12:51PM 36.2551 -79.2818 256° West  Level Estimated
12:51PM 35.9222 -79.0572 246° West 278 320 10,400  Level Washington Center
12:52PM 35.8581 -79.2372 246° West 319 367 11,600 1,020 Climbing Atlanta Center
12:53PM 35.8331 -79.3514 255° West 365 420 13,000 1,380 Climbing Atlanta Center
12:54PM 35.8233 -79.4750 264° West 371 427 14,400 1,260 Climbing Atlanta Center
12:55PM 35.8031 -79.6042 259° West 382 440 15,600 1,200 Climbing Atlanta Center
12:56PM 35.7808 -79.7436 259° West 382 440 16,800 1,140 Climbing Atlanta Center
12:57PM 35.7581 -79.8700 258° West 382 440 17,900 900 Climbing Atlanta Center
12:58PM 35.7353 -79.9992 258° West 382 440 18,700 900 Climbing Atlanta Center
12:59PM 35.7161 -80.1178 259° West 388 447 19,800 1,080 Climbing Atlanta Center
01:00PM 35.6931 -80.2494 258° West 393 452 20,900 1,080 Climbing Atlanta Center
01:01PM 35.6681 -80.3858 257° West 408 470 22,000 1,080 Climbing Atlanta Center
01:02PM 35.6697 -80.5111 271° West 390 449 23,100 1,140 Climbing Atlanta Center
01:03PM 35.7206 -80.6164 301° West 352 405 24,300 1,140 Climbing Atlanta Center
01:04PM 35.7758 -80.7267 302° West 363 418 25,400 1,080 Climbing Atlanta Center
01:05PM 35.8267 -80.8322 301° West 368 423 26,500 1,140 Climbing Atlanta Center
01:06PM 35.8772 -80.9403 300° West 368 423 27,700 1,140 Climbing Atlanta Center
01:07PM 35.9300 -81.0461 302° West 368 423 28,800 1,080 Climbing Atlanta Center
01:08PM 35.9825 -81.1519 302° West 368 423 29,900 1,140 Climbing Atlanta Center
01:09PM 36.0331 -81.2581 301° West 368 423 31,100 1,140 Climbing Atlanta Center
01:10PM 36.0792 -81.3642 298° West 362 417 32,200 1,080 Climbing Atlanta Center
01:11PM 36.1294 -81.4656 302° West 352 405 33,300 1,020 Climbing Atlanta Center
01:12PM 36.1817 -81.5794 300° West 346 398 34,300 840 Climbing Atlanta Center
01:13PM 36.2317 -81.6861 300° West 346 398 35,000 300 Climbing Atlanta Center
01:14PM 36.2819 -81.7981 299° West 352 405 35,000  Level Atlanta Center
01:15PM 36.3525 -81.8939 312° West 368 423 35,000  Level Atlanta Center
01:16PM 36.4331 -81.9744 321° Northwest 368 423 35,000  Level Atlanta Center
01:17PM 36.5178 -82.0600 321° Northwest 385 443 35,000  Level Atlanta Center
01:18PM 36.6025 -82.1458 321° Northwest 391 450 35,000  Level Atlanta Center
01:19PM 36.7003 -82.2447 321° Northwest 397 457 35,000  Level Indianapolis Center
01:21PM 36.7861 -82.3322 321° Northwest 399 459 35,000  Level Indianapolis Center
01:22PM 36.8853 -82.4331 321° Northwest 396 456 35,000  Level Indianapolis Center
01:23PM 36.9692 -82.5197 320° Northwest 393 452 35,000  Level Indianapolis Center
01:24PM 37.0531 -82.6067 320° Northwest 394 453 35,000  Level Indianapolis Center
01:25PM 37.1375 -82.6936 321° Northwest 396 456 35,100 420 Climbing Indianapolis Center
01:26PM 37.2203 -82.7803 320° Northwest 393 452 35,900 420 Climbing Indianapolis Center
01:27PM 37.3158 -82.8811 320° Northwest 386 444 36,000  Climbing Indianapolis Center
01:28PM 37.3983 -82.9675 320° Northwest 386 444 36,000 -480 Level Indianapolis Center
01:29PM 37.4808 -83.0539 320° Northwest 387 445 35,100 -540 Descending Indianapolis Center
01:30PM 37.5636 -83.1411 320° Northwest 387 445 35,000 -60 Descending Indianapolis Center
01:31PM 37.6478 -83.2292 320° Northwest 389 448 35,000  Level Indianapolis Center
01:32PM 37.7322 -83.3194 320° Northwest 396 456 35,000  Level Indianapolis Center
01:33PM 37.8169 -83.4094 320° Northwest 396 456 35,000  Level Indianapolis Center
01:34PM 37.9014 -83.5006 320° Northwest 398 458 35,000  Level Indianapolis Center
01:35PM 37.9994 -83.6044 320° Northwest 395 455 35,000  Level Indianapolis Center
01:36PM 38.0836 -83.6958 319° Northwest 396 456 35,000  Level Indianapolis Center
01:37PM 38.1692 -83.7847 321° Northwest 397 457 35,000  Level Indianapolis Center
01:38PM 38.2636 -83.8581 329° Northwest 395 455 35,000  Level Indianapolis Center
01:39PM 38.3564 -83.9303 329° Northwest 393 452 35,000  Level Indianapolis Center
01:40PM 38.4497 -84.0050 328° Northwest 394 453 35,000  Level Indianapolis Center
01:41PM 38.5433 -84.0786 328° Northwest 396 456 35,000  Level Indianapolis Center
01:42PM 38.6364 -84.1536 328° Northwest 395 455 35,000  Level Indianapolis Center
01:43PM 38.7458 -84.2406 328° Northwest 396 456 35,000  Level Indianapolis Center
01:44PM 38.8394 -84.3158 328° Northwest 396 456 35,000  Level Indianapolis Center
01:45PM 38.9331 -84.3911 328° Northwest 396 456 35,000 -120 Level Indianapolis Center
01:46PM 39.0275 -84.4686 327° Northwest 401 461 34,800 -600 Descending Indianapolis Center
01:47PM 39.1161 -84.5394 328° Northwest 397 457 33,800 -1,020 Descending Indianapolis Center
01:48PM 39.2083 -84.6122 329° Northwest 393 452 32,800 -1,140 Descending Indianapolis Center
01:49PM 39.3031 -84.6900 328° Northwest 401 461 31,500 -1,620 Descending Indianapolis Center
01:50PM 39.4211 -84.7864 328° Northwest 417 480 29,500 -1,620 Descending Indianapolis Center
01:51PM 39.5253 -84.8703 328° Northwest 436 502 28,200 -780 Descending Indianapolis Center
01:52PM 39.6297 -84.9572 327° Northwest 445 512 28,000 -120 Descending Indianapolis Center
01:53PM 39.7344 -85.0433 328° Northwest 449 517 28,000  Level Indianapolis Center
01:54PM 39.8394 -85.1297 328° Northwest 450 518 28,000 -480 Level Indianapolis Center
01:55PM 39.9436 -85.2172 327° Northwest 448 516 27,100 -960 Descending Indianapolis Center
01:56PM 40.0503 -85.3050 328° Northwest 455 524 26,100 -540 Descending Indianapolis Center
01:57PM 40.1786 -85.4131 327° Northwest 459 528 26,000 -60 Descending Indianapolis Center
01:58PM 40.2836 -85.5017 327° Northwest 457 526 26,000 -120 Level Indianapolis Center
01:59PM 40.3881 -85.5894 327° Northwest 452 520 25,800 -600 Descending Indianapolis Center
02:00PM 40.4928 -85.6764 328° Northwest 451 519 24,800 -900 Descending Indianapolis Center
02:02PM 40.6217 -85.7717 331° Northwest 454 522 24,000 -540 Descending Chicago Center
02:03PM 40.6878 -85.8992 304° West 448 516 23,700 -480 Descending Chicago Center
02:04PM 40.7572 -86.0286 305° West 437 503 23,100 -360 Descending Chicago Center
02:05PM 40.8258 -86.1569 305° West 429 494 23,000 -60 Descending Chicago Center
02:06PM 40.8947 -86.2892 305° West 433 498 23,000  Level Chicago Center
02:07PM 40.9653 -86.4214 305° West 439 505 23,000 -540 Level Chicago Center
02:08PM 41.0486 -86.5806 305° West 437 503 22,000 -1,020 Descending Chicago Center
02:09PM 41.1147 -86.7119 304° West 432 497 21,000 -1,440 Descending Chicago Center
02:10PM 41.1869 -86.8431 306° West 432 497 19,100 -1,860 Descending Chicago Center
02:11PM 41.2492 -86.9672 304° West 418 481 17,300 -1,620 Descending Chicago Center
02:12PM 41.3128 -87.0900 305° West 410 472 15,800 -1,620 Descending Chicago Center
02:13PM 41.3775 -87.2075 306° West 401 461 14,000 -2,100 Descending Chicago Center
02:14PM 41.4717 -87.3214 318° Northwest 388 447 11,500 -1,500 Descending Chicago Center
02:15PM 41.5481 -87.4078 320° Northwest 373 429 11,000 -240 Descending Chicago Center
02:16PM 41.6247 -87.4922 321° Northwest 364 419 11,100  Climbing Chicago Center
02:17PM 41.7031 -87.5806 320° Northwest 370 426 11,100 -420 Level Chicago Center
02:18PM 41.7711 -87.6589 319° Northwest 332 382 10,300 -1,140 Descending Chicago Center
02:19PM 41.8558 -87.7033 339° North 298 343 8,800 -1,380 Descending Chicago Center
02:20PM 41.9167 -87.7000 North 267 307 7,700 -1,020 Descending Chicago TRACON
02:21PM 41.9833 -87.7000 360° North 265 305 7,000 -900 Descending Chicago TRACON
02:22PM 42.0500 -87.6667 20° North 258 297 6,100 -1,200 Descending Chicago TRACON
02:23PM 42.1167 -87.6500 11° North 263 303 4,700 -1,140 Descending Chicago TRACON
02:24PM 42.1500 -87.7167 304° West 222 255 3,900 -780 Descending Chicago TRACON
02:25PM 42.1000 -87.7833 225° Southwest 203 234 3,100 -840 Descending Chicago TRACON
02:26PM 42.0667 -87.8167 217° Southwest 175 201 2,300 -840 Descending Chicago TRACON
02:27PM 42.0333 -87.8500 217° Southwest 129 148 1,600 -720 Descending Chicago TRACON
02:28PM 42.0000 -87.8833 217° Southwest 121 139 900 -720 Descending Chicago TRACON